CheckWX is a tool to help pilots better visualize weather data.  It is not intended as a substitute for an official pre-flight weather briefing.

16:46:26 UTC

KBBP METAR
Marlboro County Jetport - H E Avent Field Airport
Bennettsville, South Carolina, USA
Current

1 hour ago

KBBP 221535Z AUTO 25005KT 32/22 A3000 RMK AO2 PWINO
Observed
Jul-22 @ 15:35 UTC
Wind
  • 250° at 5 KTS
Visibility
Temperature
32°C / 90°F
Dewpoint
22°C / 72°F
Heat Index
36°C / 97°F
Humidity
55%
Altimeter
30" Hg
Pressure
1015.92 hPa
Previous

2 hours ago

KBBP 221515Z AUTO 26005KT 10SM CLR 32/22 A3000 RMK AO2
Observed
Jul-22 @ 15:15 UTC
Wind
  • 260° at 5 KTS
Visibility
10 SM
Flight Rules
VFR
Cloud Levels
  • Clear skies
Temperature
32°C / 90°F
Dewpoint
22°C / 72°F
Heat Index
36°C / 97°F
Humidity
55%
Altimeter
30" Hg
Pressure
1015.92 hPa
Previous

2 hours ago

KBBP 221455Z AUTO 25005KT 10SM CLR 32/23 A3001 RMK AO2
Observed
Jul-22 @ 14:55 UTC
Wind
  • 250° at 5 KTS
Visibility
10 SM
Flight Rules
VFR
Cloud Levels
  • Clear skies
Temperature
32°C / 90°F
Dewpoint
23°C / 73°F
Heat Index
37°C / 99°F
Humidity
59%
Altimeter
30.01" Hg
Pressure
1016.22 hPa